sensor_id;sensor_type;location;lat;lon;timestamp;P1;P2;P0
76784;PMS7003;66893;44.316;0.092;2024-01-10T00:01:32;41.25;35.75;24.25
76784;PMS7003;66893;44.316;0.092;2024-01-10T00:03:57;34.25;32.00;22.00
76784;PMS7003;66893;44.316;0.092;2024-01-10T00:06:23;37.50;33.00;22.00
76784;PMS7003;66893;44.316;0.092;2024-01-10T00:08:49;37.75;33.25;23.25
76784;PMS7003;66893;44.316;0.092;2024-01-10T00:11:15;38.25;36.00;22.75
76784;PMS7003;66893;44.316;0.092;2024-01-10T00:13:40;37.50;33.75;22.50
76784;PMS7003;66893;44.316;0.092;2024-01-10T00:16:06;36.25;32.50;20.00
76784;PMS7003;66893;44.316;0.092;2024-01-10T00:18:31;36.00;32.50;21.25
76784;PMS7003;66893;44.316;0.092;2024-01-10T00:20:57;34.00;32.25;22.50
76784;PMS7003;66893;44.316;0.092;2024-01-10T00:23:23;31.25;28.00;22.00
76784;PMS7003;66893;44.316;0.092;2024-01-10T00:25:48;35.00;32.25;20.75
76784;PMS7003;66893;44.316;0.092;2024-01-10T00:28:14;38.75;33.00;22.00
76784;PMS7003;66893;44.316;0.092;2024-01-10T00:30:43;39.25;34.75;22.00
76784;PMS7003;66893;44.316;0.092;2024-01-10T00:33:09;32.00;30.75;21.50
76784;PMS7003;66893;44.316;0.092;2024-01-10T00:35:34;36.25;30.25;19.75
76784;PMS7003;66893;44.316;0.092;2024-01-10T00:38:00;41.25;32.75;22.50
76784;PMS7003;66893;44.316;0.092;2024-01-10T00:40:25;36.25;32.00;21.00
76784;PMS7003;66893;44.316;0.092;2024-01-10T00:42:51;41.75;35.00;22.00
76784;PMS7003;66893;44.316;0.092;2024-01-10T00:45:16;38.75;32.25;20.25
76784;PMS7003;66893;44.316;0.092;2024-01-10T00:47:42;38.50;33.25;21.50
76784;PMS7003;66893;44.316;0.092;2024-01-10T00:50:08;38.00;33.00;22.00
76784;PMS7003;66893;44.316;0.092;2024-01-10T00:52:36;33.00;27.25;18.25
76784;PMS7003;66893;44.316;0.092;2024-01-10T00:55:01;34.25;29.50;20.75
76784;PMS7003;66893;44.316;0.092;2024-01-10T00:57:27;34.75;29.75;19.00
76784;PMS7003;66893;44.316;0.092;2024-01-10T00:59:52;29.50;28.00;21.00
76784;PMS7003;66893;44.316;0.092;2024-01-10T01:02:17;37.75;32.50;21.50
76784;PMS7003;66893;44.316;0.092;2024-01-10T01:04:43;32.25;29.50;21.00
76784;PMS7003;66893;44.316;0.092;2024-01-10T01:07:11;35.75;29.25;21.75
76784;PMS7003;66893;44.316;0.092;2024-01-10T01:09:36;36.00;28.50;19.00
76784;PMS7003;66893;44.316;0.092;2024-01-10T01:12:01;27.50;26.75;18.75
76784;PMS7003;66893;44.316;0.092;2024-01-10T01:14:27;34.75;30.25;20.00
76784;PMS7003;66893;44.316;0.092;2024-01-10T01:16:53;34.00;30.50;20.25
76784;PMS7003;66893;44.316;0.092;2024-01-10T01:19:18;34.00;30.25;19.50
76784;PMS7003;66893;44.316;0.092;2024-01-10T01:21:43;27.50;23.75;18.75
76784;PMS7003;66893;44.316;0.092;2024-01-10T01:24:09;33.00;27.50;19.50
76784;PMS7003;66893;44.316;0.092;2024-01-10T01:26:34;30.25;27.75;19.75
76784;PMS7003;66893;44.316;0.092;2024-01-10T01:29:00;33.25;29.75;19.00
76784;PMS7003;66893;44.316;0.092;2024-01-10T01:31:25;37.75;30.00;21.00
76784;PMS7003;66893;44.316;0.092;2024-01-10T01:33:51;33.50;29.50;19.00
76784;PMS7003;66893;44.316;0.092;2024-01-10T01:36:16;29.50;25.75;17.75
76784;PMS7003;66893;44.316;0.092;2024-01-10T01:38:42;30.25;27.50;19.75
76784;PMS7003;66893;44.316;0.092;2024-01-10T01:41:08;34.00;31.00;18.50
76784;PMS7003;66893;44.316;0.092;2024-01-10T01:43:33;33.00;31.25;20.50
76784;PMS7003;66893;44.316;0.092;2024-01-10T01:46:00;34.25;31.25;21.00
76784;PMS7003;66893;44.316;0.092;2024-01-10T01:48:26;36.00;25.25;17.75
76784;PMS7003;66893;44.316;0.092;2024-01-10T01:50:52;30.75;27.75;20.00
76784;PMS7003;66893;44.316;0.092;2024-01-10T01:53:25;36.50;32.00;19.75
76784;PMS7003;66893;44.316;0.092;2024-01-10T01:55:53;35.50;28.75;19.75
76784;PMS7003;66893;44.316;0.092;2024-01-10T01:58:22;25.25;23.50;19.75
76784;PMS7003;66893;44.316;0.092;2024-01-10T02:00:48;35.75;28.75;18.50
76784;PMS7003;66893;44.316;0.092;2024-01-10T02:03:15;30.75;28.00;20.00
76784;PMS7003;66893;44.316;0.092;2024-01-10T02:05:40;35.25;28.50;19.25
76784;PMS7003;66893;44.316;0.092;2024-01-10T02:08:06;34.75;30.50;20.75
76784;PMS7003;66893;44.316;0.092;2024-01-10T02:10:32;28.75;26.00;18.50
76784;PMS7003;66893;44.316;0.092;2024-01-10T02:12:59;28.00;27.00;19.00
76784;PMS7003;66893;44.316;0.092;2024-01-10T02:15:24;31.50;27.75;21.00
76784;PMS7003;66893;44.316;0.092;2024-01-10T02:17:50;30.00;24.50;17.00
76784;PMS7003;66893;44.316;0.092;2024-01-10T02:20:15;31.50;29.00;20.00
76784;PMS7003;66893;44.316;0.092;2024-01-10T02:22:46;28.50;25.00;16.75
76784;PMS7003;66893;44.316;0.092;2024-01-10T02:25:12;30.25;26.00;19.25
76784;PMS7003;66893;44.316;0.092;2024-01-10T02:27:39;31.00;23.00;17.75
76784;PMS7003;66893;44.316;0.092;2024-01-10T02:30:05;32.75;27.50;19.00
76784;PMS7003;66893;44.316;0.092;2024-01-10T02:32:32;32.00;28.50;20.00
76784;PMS7003;66893;44.316;0.092;2024-01-10T02:34:58;33.50;23.50;15.50
76784;PMS7003;66893;44.316;0.092;2024-01-10T02:37:24;33.25;28.75;19.00
76784;PMS7003;66893;44.316;0.092;2024-01-10T02:39:49;27.00;22.25;13.75
76784;PMS7003;66893;44.316;0.092;2024-01-10T02:42:15;29.00;25.50;16.25
76784;PMS7003;66893;44.316;0.092;2024-01-10T02:44:41;29.00;25.50;18.50
76784;PMS7003;66893;44.316;0.092;2024-01-10T02:47:07;25.00;19.50;15.75
76784;PMS7003;66893;44.316;0.092;2024-01-10T02:49:33;30.25;23.00;18.50
76784;PMS7003;66893;44.316;0.092;2024-01-10T02:51:59;31.00;27.25;19.75
76784;PMS7003;66893;44.316;0.092;2024-01-10T02:54:24;27.75;25.00;15.50
76784;PMS7003;66893;44.316;0.092;2024-01-10T02:56:50;30.50;26.75;18.75
76784;PMS7003;66893;44.316;0.092;2024-01-10T02:59:16;29.75;25.00;17.75
76784;PMS7003;66893;44.316;0.092;2024-01-10T03:01:41;32.00;28.00;19.75
76784;PMS7003;66893;44.316;0.092;2024-01-10T03:04:07;26.00;21.25;15.75
76784;PMS7003;66893;44.316;0.092;2024-01-10T03:06:32;33.75;29.25;20.25
76784;PMS7003;66893;44.316;0.092;2024-01-10T03:08:58;25.25;24.25;18.00
76784;PMS7003;66893;44.316;0.092;2024-01-10T03:11:23;27.25;26.75;18.75
76784;PMS7003;66893;44.316;0.092;2024-01-10T03:13:49;28.75;28.00;20.00
76784;PMS7003;66893;44.316;0.092;2024-01-10T03:16:17;31.25;28.50;19.25
76784;PMS7003;66893;44.316;0.092;2024-01-10T03:18:43;28.75;22.50;17.00
76784;PMS7003;66893;44.316;0.092;2024-01-10T03:21:09;29.75;27.75;18.00
76784;PMS7003;66893;44.316;0.092;2024-01-10T03:23:34;26.25;24.25;18.50
76784;PMS7003;66893;44.316;0.092;2024-01-10T03:25:59;32.25;24.75;18.50
76784;PMS7003;66893;44.316;0.092;2024-01-10T03:28:25;23.50;21.00;13.50
76784;PMS7003;66893;44.316;0.092;2024-01-10T03:30:50;29.50;23.75;17.00
76784;PMS7003;66893;44.316;0.092;2024-01-10T03:33:16;26.75;22.25;15.50
76784;PMS7003;66893;44.316;0.092;2024-01-10T03:35:41;32.00;20.75;14.00
76784;PMS7003;66893;44.316;0.092;2024-01-10T03:38:07;27.25;24.00;18.00
76784;PMS7003;66893;44.316;0.092;2024-01-10T03:40:33;28.25;23.75;17.75
76784;PMS7003;66893;44.316;0.092;2024-01-10T03:42:58;31.25;25.50;16.50
76784;PMS7003;66893;44.316;0.092;2024-01-10T03:45:24;27.50;23.50;17.50
76784;PMS7003;66893;44.316;0.092;2024-01-10T03:47:49;27.25;24.25;17.00
76784;PMS7003;66893;44.316;0.092;2024-01-10T03:50:19;30.50;23.25;14.00
76784;PMS7003;66893;44.316;0.092;2024-01-10T03:52:45;25.25;23.25;18.00
76784;PMS7003;66893;44.316;0.092;2024-01-10T03:55:14;20.25;20.00;13.25
76784;PMS7003;66893;44.316;0.092;2024-01-10T03:57:42;27.00;22.00;13.75
76784;PMS7003;66893;44.316;0.092;2024-01-10T04:00:08;28.50;24.00;17.50
76784;PMS7003;66893;44.316;0.092;2024-01-10T04:02:36;26.50;22.50;15.25
76784;PMS7003;66893;44.316;0.092;2024-01-10T04:05:05;29.25;23.75;16.25
76784;PMS7003;66893;44.316;0.092;2024-01-10T04:07:32;24.75;20.75;14.75
76784;PMS7003;66893;44.316;0.092;2024-01-10T04:09:58;23.00;22.50;14.50
76784;PMS7003;66893;44.316;0.092;2024-01-10T04:12:23;22.75;22.00;15.25
76784;PMS7003;66893;44.316;0.092;2024-01-10T04:14:49;23.75;18.75;15.75
76784;PMS7003;66893;44.316;0.092;2024-01-10T04:17:14;22.75;18.75;12.50
76784;PMS7003;66893;44.316;0.092;2024-01-10T04:19:40;29.25;23.25;13.50
76784;PMS7003;66893;44.316;0.092;2024-01-10T04:22:08;23.00;21.25;17.50
76784;PMS7003;66893;44.316;0.092;2024-01-10T04:24:33;26.00;21.00;15.50
76784;PMS7003;66893;44.316;0.092;2024-01-10T04:26:59;22.75;22.00;17.75
76784;PMS7003;66893;44.316;0.092;2024-01-10T04:29:24;21.50;20.75;14.25
76784;PMS7003;66893;44.316;0.092;2024-01-10T04:31:50;23.50;20.50;13.75
76784;PMS7003;66893;44.316;0.092;2024-01-10T04:34:15;27.50;22.00;14.00
76784;PMS7003;66893;44.316;0.092;2024-01-10T04:36:41;27.75;24.00;17.75
76784;PMS7003;66893;44.316;0.092;2024-01-10T04:39:06;26.25;20.25;13.00
76784;PMS7003;66893;44.316;0.092;2024-01-10T04:41:32;24.50;21.50;14.25
76784;PMS7003;66893;44.316;0.092;2024-01-10T04:43:58;21.50;19.00;12.50
76784;PMS7003;66893;44.316;0.092;2024-01-10T04:46:23;22.25;20.00;12.00
76784;PMS7003;66893;44.316;0.092;2024-01-10T04:48:48;21.75;19.00;14.00
76784;PMS7003;66893;44.316;0.092;2024-01-10T04:51:14;24.25;20.25;13.75
76784;PMS7003;66893;44.316;0.092;2024-01-10T04:53:39;22.75;20.25;13.25
76784;PMS7003;66893;44.316;0.092;2024-01-10T04:56:05;24.00;22.00;16.00
76784;PMS7003;66893;44.316;0.092;2024-01-10T04:58:31;25.50;20.75;13.75
76784;PMS7003;66893;44.316;0.092;2024-01-10T05:00:57;19.50;18.75;14.75
76784;PMS7003;66893;44.316;0.092;2024-01-10T05:03:23;22.00;19.00;14.00
76784;PMS7003;66893;44.316;0.092;2024-01-10T05:05:49;22.25;20.50;12.00
76784;PMS7003;66893;44.316;0.092;2024-01-10T05:08:14;21.00;18.50;13.00
76784;PMS7003;66893;44.316;0.092;2024-01-10T05:10:39;21.00;18.00;13.00
76784;PMS7003;66893;44.316;0.092;2024-01-10T05:13:05;23.75;20.50;13.75
76784;PMS7003;66893;44.316;0.092;2024-01-10T05:15:30;18.00;16.25;12.00
76784;PMS7003;66893;44.316;0.092;2024-01-10T05:17:56;22.75;21.75;14.00
76784;PMS7003;66893;44.316;0.092;2024-01-10T05:20:21;21.00;18.50;13.25
76784;PMS7003;66893;44.316;0.092;2024-01-10T05:22:46;22.25;20.50;14.00
76784;PMS7003;66893;44.316;0.092;2024-01-10T05:25:12;24.50;19.50;12.75
76784;PMS7003;66893;44.316;0.092;2024-01-10T05:27:37;22.00;20.00;14.00
76784;PMS7003;66893;44.316;0.092;2024-01-10T05:30:03;23.50;20.75;13.00
76784;PMS7003;66893;44.316;0.092;2024-01-10T05:32:29;22.50;20.00;13.50
76784;PMS7003;66893;44.316;0.092;2024-01-10T05:34:54;15.75;14.25;10.75
76784;PMS7003;66893;44.316;0.092;2024-01-10T05:37:20;20.00;19.00;12.50
76784;PMS7003;66893;44.316;0.092;2024-01-10T05:39:47;21.75;18.50;14.25
76784;PMS7003;66893;44.316;0.092;2024-01-10T05:42:16;19.25;19.00;13.00
76784;PMS7003;66893;44.316;0.092;2024-01-10T05:44:41;20.25;18.00;11.50
76784;PMS7003;66893;44.316;0.092;2024-01-10T05:47:07;21.75;19.25;14.00
76784;PMS7003;66893;44.316;0.092;2024-01-10T05:49:32;23.25;20.25;13.25
76784;PMS7003;66893;44.316;0.092;2024-01-10T05:51:58;23.25;20.50;14.00
76784;PMS7003;66893;44.316;0.092;2024-01-10T05:54:23;24.00;20.75;14.75
76784;PMS7003;66893;44.316;0.092;2024-01-10T05:56:49;21.25;20.00;13.75
76784;PMS7003;66893;44.316;0.092;2024-01-10T05:59:14;26.00;22.00;14.00
76784;PMS7003;66893;44.316;0.092;2024-01-10T06:01:41;26.50;19.75;13.25
76784;PMS7003;66893;44.316;0.092;2024-01-10T06:04:07;25.75;22.50;15.25
76784;PMS7003;66893;44.316;0.092;2024-01-10T06:06:32;28.00;24.25;17.00
76784;PMS7003;66893;44.316;0.092;2024-01-10T06:08:58;29.00;27.25;17.50
76784;PMS7003;66893;44.316;0.092;2024-01-10T06:11:23;37.00;29.75;19.75
76784;PMS7003;66893;44.316;0.092;2024-01-10T06:13:49;28.50;26.00;18.50
76784;PMS7003;66893;44.316;0.092;2024-01-10T06:16:17;32.50;29.25;17.00
76784;PMS7003;66893;44.316;0.092;2024-01-10T06:18:42;29.25;25.25;17.50
76784;PMS7003;66893;44.316;0.092;2024-01-10T06:21:08;28.25;26.50;18.00
76784;PMS7003;66893;44.316;0.092;2024-01-10T06:23:33;26.50;24.00;15.25
76784;PMS7003;66893;44.316;0.092;2024-01-10T06:25:59;23.00;20.25;13.00
76784;PMS7003;66893;44.316;0.092;2024-01-10T06:28:24;22.50;20.75;14.50
76784;PMS7003;66893;44.316;0.092;2024-01-10T06:30:50;26.75;22.75;14.25
76784;PMS7003;66893;44.316;0.092;2024-01-10T06:33:15;28.00;23.50;18.00
76784;PMS7003;66893;44.316;0.092;2024-01-10T06:35:41;23.25;22.00;15.50
76784;PMS7003;66893;44.316;0.092;2024-01-10T06:38:13;29.75;23.75;18.50
76784;PMS7003;66893;44.316;0.092;2024-01-10T06:40:39;24.75;23.75;18.00
76784;PMS7003;66893;44.316;0.092;2024-01-10T06:43:06;25.00;21.50;14.00
76784;PMS7003;66893;44.316;0.092;2024-01-10T06:45:33;28.25;25.00;18.25
76784;PMS7003;66893;44.316;0.092;2024-01-10T06:47:59;24.75;22.50;14.50
76784;PMS7003;66893;44.316;0.092;2024-01-10T06:50:24;28.25;23.50;15.25
76784;PMS7003;66893;44.316;0.092;2024-01-10T06:52:50;21.00;21.00;14.00
76784;PMS7003;66893;44.316;0.092;2024-01-10T06:55:15;24.25;21.00;15.00
76784;PMS7003;66893;44.316;0.092;2024-01-10T06:57:43;22.25;19.25;15.25
76784;PMS7003;66893;44.316;0.092;2024-01-10T07:00:09;26.50;23.50;16.50
76784;PMS7003;66893;44.316;0.092;2024-01-10T07:02:36;25.25;22.75;15.25
76784;PMS7003;66893;44.316;0.092;2024-01-10T07:05:02;25.25;21.50;14.25
76784;PMS7003;66893;44.316;0.092;2024-01-10T07:07:31;26.50;22.75;13.75
76784;PMS7003;66893;44.316;0.092;2024-01-10T07:09:57;24.25;23.50;13.50
76784;PMS7003;66893;44.316;0.092;2024-01-10T07:12:22;23.50;20.75;13.50
76784;PMS7003;66893;44.316;0.092;2024-01-10T07:14:48;21.25;19.00;13.50
76784;PMS7003;66893;44.316;0.092;2024-01-10T07:17:13;23.00;21.25;13.50
76784;PMS7003;66893;44.316;0.092;2024-01-10T07:19:38;23.00;20.50;14.25
76784;PMS7003;66893;44.316;0.092;2024-01-10T07:22:05;22.00;19.50;13.00
76784;PMS7003;66893;44.316;0.092;2024-01-10T07:24:32;26.50;24.00;15.00
76784;PMS7003;66893;44.316;0.092;2024-01-10T07:26:59;26.25;23.25;16.25
76784;PMS7003;66893;44.316;0.092;2024-01-10T07:29:24;27.25;24.75;17.00
76784;PMS7003;66893;44.316;0.092;2024-01-10T07:31:50;20.25;18.25;12.75
76784;PMS7003;66893;44.316;0.092;2024-01-10T07:34:17;25.50;22.50;17.00
76784;PMS7003;66893;44.316;0.092;2024-01-10T07:36:43;27.25;21.50;13.50
76784;PMS7003;66893;44.316;0.092;2024-01-10T07:39:08;26.50;20.00;13.25
76784;PMS7003;66893;44.316;0.092;2024-01-10T07:41:34;21.00;18.75;13.25
76784;PMS7003;66893;44.316;0.092;2024-01-10T07:43:59;24.50;21.00;15.50
76784;PMS7003;66893;44.316;0.092;2024-01-10T07:46:25;28.00;26.00;16.00
76784;PMS7003;66893;44.316;0.092;2024-01-10T07:48:52;33.75;30.25;21.75
76784;PMS7003;66893;44.316;0.092;2024-01-10T07:51:17;41.50;35.25;22.00
76784;PMS7003;66893;44.316;0.092;2024-01-10T07:53:43;39.25;35.00;23.00
76784;PMS7003;66893;44.316;0.092;2024-01-10T07:56:08;38.75;31.00;21.00
76784;PMS7003;66893;44.316;0.092;2024-01-10T07:58:34;40.50;34.50;19.75
76784;PMS7003;66893;44.316;0.092;2024-01-10T08:00:59;34.00;28.00;19.50
76784;PMS7003;66893;44.316;0.092;2024-01-10T08:03:24;30.00;25.75;17.75
76784;PMS7003;66893;44.316;0.092;2024-01-10T08:05:50;28.75;26.25;18.00
76784;PMS7003;66893;44.316;0.092;2024-01-10T08:08:15;28.00;26.50;16.50
76784;PMS7003;66893;44.316;0.092;2024-01-10T08:10:42;28.75;25.50;15.25
76784;PMS7003;66893;44.316;0.092;2024-01-10T08:13:07;28.50;24.25;16.75
76784;PMS7003;66893;44.316;0.092;2024-01-10T08:15:32;32.00;26.00;17.00
76784;PMS7003;66893;44.316;0.092;2024-01-10T08:17:59;32.50;27.50;17.50
76784;PMS7003;66893;44.316;0.092;2024-01-10T08:20:28;27.00;22.50;14.00
76784;PMS7003;66893;44.316;0.092;2024-01-10T08:22:53;24.75;21.00;14.50
76784;PMS7003;66893;44.316;0.092;2024-01-10T08:25:19;34.50;26.50;16.75
76784;PMS7003;66893;44.316;0.092;2024-01-10T08:27:46;30.25;26.00;17.00
76784;PMS7003;66893;44.316;0.092;2024-01-10T08:30:12;36.75;29.00;15.50
76784;PMS7003;66893;44.316;0.092;2024-01-10T08:32:37;29.75;24.75;17.75
76784;PMS7003;66893;44.316;0.092;2024-01-10T08:35:03;28.00;25.25;17.50
76784;PMS7003;66893;44.316;0.092;2024-01-10T08:37:36;30.25;24.00;18.00
76784;PMS7003;66893;44.316;0.092;2024-01-10T08:40:02;30.75;21.75;14.50
76784;PMS7003;66893;44.316;0.092;2024-01-10T08:42:32;31.25;28.25;19.00
76784;PMS7003;66893;44.316;0.092;2024-01-10T08:44:58;26.50;23.25;17.25
76784;PMS7003;66893;44.316;0.092;2024-01-10T08:47:23;31.75;23.50;16.25
76784;PMS7003;66893;44.316;0.092;2024-01-10T08:49:49;23.50;22.00;17.25
76784;PMS7003;66893;44.316;0.092;2024-01-10T08:52:15;32.00;24.75;17.75
76784;PMS7003;66893;44.316;0.092;2024-01-10T08:54:40;32.25;26.75;17.00
76784;PMS7003;66893;44.316;0.092;2024-01-10T08:57:05;28.25;24.00;16.00
76784;PMS7003;66893;44.316;0.092;2024-01-10T08:59:31;24.25;20.25;15.00
76784;PMS7003;66893;44.316;0.092;2024-01-10T09:01:57;24.00;21.50;14.50
76784;PMS7003;66893;44.316;0.092;2024-01-10T09:04:22;21.25;18.25;12.50
76784;PMS7003;66893;44.316;0.092;2024-01-10T09:06:48;23.75;20.00;14.00
76784;PMS7003;66893;44.316;0.092;2024-01-10T09:09:13;23.50;19.00;12.25
76784;PMS7003;66893;44.316;0.092;2024-01-10T09:11:39;27.25;23.75;15.25
76784;PMS7003;66893;44.316;0.092;2024-01-10T09:14:04;22.00;20.50;14.00
76784;PMS7003;66893;44.316;0.092;2024-01-10T09:16:29;24.75;21.75;16.25
76784;PMS7003;66893;44.316;0.092;2024-01-10T09:18:55;23.50;22.00;15.25
76784;PMS7003;66893;44.316;0.092;2024-01-10T09:21:25;23.25;21.25;14.50
76784;PMS7003;66893;44.316;0.092;2024-01-10T09:23:54;26.75;21.00;13.00
76784;PMS7003;66893;44.316;0.092;2024-01-10T09:26:20;153.50;117.50;48.50
76784;PMS7003;66893;44.316;0.092;2024-01-10T09:28:46;95.25;85.75;39.50
76784;PMS7003;66893;44.316;0.092;2024-01-10T09:31:11;97.75;77.00;39.25
76784;PMS7003;66893;44.316;0.092;2024-01-10T09:33:37;90.50;69.00;35.00
76784;PMS7003;66893;44.316;0.092;2024-01-10T09:36:02;86.50;67.75;35.00
76784;PMS7003;66893;44.316;0.092;2024-01-10T09:38:28;86.25;61.25;35.00
76784;PMS7003;66893;44.316;0.092;2024-01-10T09:40:55;73.25;55.25;29.00
76784;PMS7003;66893;44.316;0.092;2024-01-10T09:43:27;72.75;52.50;30.75
76784;PMS7003;66893;44.316;0.092;2024-01-10T09:45:54;66.00;50.75;29.00
76784;PMS7003;66893;44.316;0.092;2024-01-10T09:48:24;65.75;48.75;27.00
76784;PMS7003;66893;44.316;0.092;2024-01-10T09:50:51;56.75;44.00;25.50
76784;PMS7003;66893;44.316;0.092;2024-01-10T09:53:23;59.50;44.50;25.50
76784;PMS7003;66893;44.316;0.092;2024-01-10T09:55:50;49.75;40.00;22.00
76784;PMS7003;66893;44.316;0.092;2024-01-10T09:58:15;53.50;40.50;22.50
76784;PMS7003;66893;44.316;0.092;2024-01-10T10:00:41;53.75;39.00;23.75
76784;PMS7003;66893;44.316;0.092;2024-01-10T10:03:07;54.50;37.50;23.50
76784;PMS7003;66893;44.316;0.092;2024-01-10T10:05:36;46.75;37.00;24.00
76784;PMS7003;66893;44.316;0.092;2024-01-10T10:08:02;48.00;36.50;23.25
76784;PMS7003;66893;44.316;0.092;2024-01-10T10:10:28;39.75;31.25;19.75
76784;PMS7003;66893;44.316;0.092;2024-01-10T10:12:53;43.25;36.25;21.50
76784;PMS7003;66893;44.316;0.092;2024-01-10T10:15:20;36.75;30.75;19.25
76784;PMS7003;66893;44.316;0.092;2024-01-10T10:17:47;45.50;34.00;22.00
76784;PMS7003;66893;44.316;0.092;2024-01-10T10:20:23;41.25;33.50;21.00
76784;PMS7003;66893;44.316;0.092;2024-01-10T10:23:11;45.50;34.75;20.25
76784;PMS7003;66893;44.316;0.092;2024-01-10T10:25:38;27.75;27.50;20.00
76784;PMS7003;66893;44.316;0.092;2024-01-10T10:28:08;36.00;30.75;19.75
76784;PMS7003;66893;44.316;0.092;2024-01-10T10:30:34;33.25;29.00;17.50
76784;PMS7003;66893;44.316;0.092;2024-01-10T10:33:00;38.25;32.50;19.50
76784;PMS7003;66893;44.316;0.092;2024-01-10T10:35:26;39.00;32.00;19.50
76784;PMS7003;66893;44.316;0.092;2024-01-10T10:37:52;44.75;36.50;22.00
76784;PMS7003;66893;44.316;0.092;2024-01-10T10:40:19;45.00;37.25;25.50
76784;PMS7003;66893;44.316;0.092;2024-01-10T10:42:46;35.00;33.00;20.75
76784;PMS7003;66893;44.316;0.092;2024-01-10T10:45:16;45.75;39.00;22.00
76784;PMS7003;66893;44.316;0.092;2024-01-10T10:47:59;44.00;38.00;24.00
76784;PMS7003;66893;44.316;0.092;2024-01-10T10:50:28;42.00;33.50;21.00
76784;PMS7003;66893;44.316;0.092;2024-01-10T10:52:58;36.50;33.25;21.00
76784;PMS7003;66893;44.316;0.092;2024-01-10T10:55:27;32.50;28.25;18.75
76784;PMS7003;66893;44.316;0.092;2024-01-10T10:57:54;35.75;32.25;21.25
76784;PMS7003;66893;44.316;0.092;2024-01-10T11:00:21;43.75;36.50;22.00
76784;PMS7003;66893;44.316;0.092;2024-01-10T11:02:51;39.25;34.25;18.50
76784;PMS7003;66893;44.316;0.092;2024-01-10T11:05:18;42.00;32.75;22.25
76784;PMS7003;66893;44.316;0.092;2024-01-10T11:07:45;27.75;26.75;15.25
76784;PMS7003;66893;44.316;0.092;2024-01-10T11:10:19;35.50;33.25;22.75
76784;PMS7003;66893;44.316;0.092;2024-01-10T11:13:00;30.00;28.25;19.25
76784;PMS7003;66893;44.316;0.092;2024-01-10T11:19:09;41.50;34.00;21.75
76784;PMS7003;66893;44.316;0.092;2024-01-10T11:24:50;40.50;31.50;20.50
76784;PMS7003;66893;44.316;0.092;2024-01-10T11:27:17;39.00;32.25;21.50
76784;PMS7003;66893;44.316;0.092;2024-01-10T11:29:45;35.25;24.50;19.25
76784;PMS7003;66893;44.316;0.092;2024-01-10T11:32:17;39.75;31.00;20.50
76784;PMS7003;66893;44.316;0.092;2024-01-10T11:37:18;36.25;28.00;18.00
76784;PMS7003;66893;44.316;0.092;2024-01-10T11:39:44;33.75;27.00;15.25
76784;PMS7003;66893;44.316;0.092;2024-01-10T11:42:09;36.25;29.25;19.75
76784;PMS7003;66893;44.316;0.092;2024-01-10T11:44:46;36.50;26.75;17.00
76784;PMS7003;66893;44.316;0.092;2024-01-10T11:47:13;31.75;28.75;19.50
76784;PMS7003;66893;44.316;0.092;2024-01-10T11:49:40;33.50;27.25;20.00
76784;PMS7003;66893;44.316;0.092;2024-01-10T11:52:05;29.25;24.50;14.50
76784;PMS7003;66893;44.316;0.092;2024-01-10T11:57:02;28.75;27.25;16.25
76784;PMS7003;66893;44.316;0.092;2024-01-10T11:59:32;51.25;34.50;20.00
76784;PMS7003;66893;44.316;0.092;2024-01-10T12:01:58;45.00;32.50;17.00
76784;PMS7003;66893;44.316;0.092;2024-01-10T12:04:24;36.25;30.00;20.25
76784;PMS7003;66893;44.316;0.092;2024-01-10T12:06:54;33.75;29.25;19.00
76784;PMS7003;66893;44.316;0.092;2024-01-10T12:09:20;30.75;23.25;17.00
76784;PMS7003;66893;44.316;0.092;2024-01-10T12:11:46;29.50;24.75;17.50
76784;PMS7003;66893;44.316;0.092;2024-01-10T12:14:11;35.75;25.00;16.75
76784;PMS7003;66893;44.316;0.092;2024-01-10T12:16:37;28.75;24.00;15.00
76784;PMS7003;66893;44.316;0.092;2024-01-10T12:19:03;31.25;26.00;17.00
76784;PMS7003;66893;44.316;0.092;2024-01-10T12:21:33;34.25;24.75;15.00
76784;PMS7003;66893;44.316;0.092;2024-01-10T12:23:58;31.50;24.25;15.75
76784;PMS7003;66893;44.316;0.092;2024-01-10T12:26:23;33.50;28.00;16.25
76784;PMS7003;66893;44.316;0.092;2024-01-10T12:28:56;26.50;22.00;16.50
76784;PMS7003;66893;44.316;0.092;2024-01-10T12:31:27;25.25;24.25;18.00
76784;PMS7003;66893;44.316;0.092;2024-01-10T12:33:57;23.25;22.75;17.00
76784;PMS7003;66893;44.316;0.092;2024-01-10T12:36:24;21.75;21.25;15.00
76784;PMS7003;66893;44.316;0.092;2024-01-10T12:38:50;31.75;24.25;15.25
76784;PMS7003;66893;44.316;0.092;2024-01-10T12:41:16;33.50;25.75;19.00
76784;PMS7003;66893;44.316;0.092;2024-01-10T12:43:43;28.75;25.25;17.00
76784;PMS7003;66893;44.316;0.092;2024-01-10T12:46:13;29.75;26.25;18.00
76784;PMS7003;66893;44.316;0.092;2024-01-10T12:48:39;29.25;26.75;17.75
76784;PMS7003;66893;44.316;0.092;2024-01-10T12:51:09;29.25;28.25;16.75
76784;PMS7003;66893;44.316;0.092;2024-01-10T12:53:42;41.25;32.50;21.50
76784;PMS7003;66893;44.316;0.092;2024-01-10T12:56:09;35.25;30.75;20.75
76784;PMS7003;66893;44.316;0.092;2024-01-10T12:58:39;36.75;31.00;22.00
76784;PMS7003;66893;44.316;0.092;2024-01-10T13:01:06;42.75;33.50;21.75
76784;PMS7003;66893;44.316;0.092;2024-01-10T13:03:33;31.50;29.25;17.00
76784;PMS7003;66893;44.316;0.092;2024-01-10T13:05:59;35.50;29.75;20.00
76784;PMS7003;66893;44.316;0.092;2024-01-10T13:08:24;32.25;29.25;20.25
76784;PMS7003;66893;44.316;0.092;2024-01-10T13:10:50;33.00;28.25;20.00
76784;PMS7003;66893;44.316;0.092;2024-01-10T13:13:15;29.25;28.50;18.50
76784;PMS7003;66893;44.316;0.092;2024-01-10T13:15:43;30.00;25.50;17.00
76784;PMS7003;66893;44.316;0.092;2024-01-10T13:18:08;31.00;27.00;19.50
76784;PMS7003;66893;44.316;0.092;2024-01-10T13:20:38;33.00;29.50;18.50
76784;PMS7003;66893;44.316;0.092;2024-01-10T13:23:04;33.75;30.50;19.25
76784;PMS7003;66893;44.316;0.092;2024-01-10T13:25:29;30.75;23.75;16.50
76784;PMS7003;66893;44.316;0.092;2024-01-10T13:27:55;24.50;22.50;16.50
76784;PMS7003;66893;44.316;0.092;2024-01-10T13:30:20;29.25;22.75;15.00
76784;PMS7003;66893;44.316;0.092;2024-01-10T13:32:46;28.00;26.75;17.00
76784;PMS7003;66893;44.316;0.092;2024-01-10T13:35:14;23.50;22.00;16.75
76784;PMS7003;66893;44.316;0.092;2024-01-10T13:37:41;24.25;22.25;15.00
76784;PMS7003;66893;44.316;0.092;2024-01-10T13:40:07;24.25;23.00;16.00
76784;PMS7003;66893;44.316;0.092;2024-01-10T13:42:35;23.50;21.50;15.00
76784;PMS7003;66893;44.316;0.092;2024-01-10T13:45:03;14.00;11.75;9.50
76784;PMS7003;66893;44.316;0.092;2024-01-10T13:47:32;31.50;24.00;17.00
76784;PMS7003;66893;44.316;0.092;2024-01-10T13:49:59;22.50;21.50;14.75
76784;PMS7003;66893;44.316;0.092;2024-01-10T13:52:25;21.00;19.00;14.75
76784;PMS7003;66893;44.316;0.092;2024-01-10T13:54:50;28.00;23.75;16.00